Terminal Aerodrome Forecast
Issued by NWS Spokane, WA

Home | Current Version | Previous Version | Text Only | Print | Product List | Glossary On
Versions: 1 2 3 4 5 6 7 8 9 10 11 12 13 14 15 16
000
FTUS46 KOTX 241135
TAFGEG
TAF
KGEG 241135Z 2412/2512 17008KT P6SM SCT080 BKN220
     FM250000 09005KT P6SM VCSH BKN035 OVC060
     FM250200 08007KT P6SM -RA SCT025 OVC040
     FM250800 06007KT P6SM SCT040 OVC120=

USA.gov is the U.S. government's official web portal to all federal, state and local government web resources and services.